createdAt,value
2023-01-29T00:02:52.823Z,92347.66
2023-01-29T00:05:55.943Z,92344.31
2023-01-29T00:08:59.246Z,92337.59
2023-01-29T00:12:02.461Z,92335.44
2023-01-29T00:15:07.097Z,92345.81
2023-01-29T00:18:11.883Z,92347.16
2023-01-29T00:21:24.684Z,92337.38
2023-01-29T00:24:28.883Z,92329.19
2023-01-29T00:27:32.268Z,92325.81
2023-01-29T00:30:36.660Z,92332.59
2023-01-29T00:33:41.019Z,92333.34
2023-01-29T00:36:47.005Z,92331.25
2023-01-29T00:39:50.963Z,92342.31
2023-01-29T00:43:12.747Z,92336.25
2023-01-29T00:46:16.666Z,92337.28
2023-01-29T00:49:19.982Z,92339.28
2023-01-29T00:52:27.102Z,92335.19
2023-01-29T00:55:30.476Z,92334.97
2023-01-29T00:58:36.950Z,92342.09
2023-01-29T01:01:58.946Z,92344.91
2023-01-29T01:05:03.939Z,92339.06
2023-01-29T01:08:29.826Z,92339.31
2023-01-29T01:11:34.600Z,92341.09
2023-01-29T01:14:37.445Z,92349.41
2023-01-29T01:17:40.583Z,92350.06
2023-01-29T01:20:44.580Z,92337.72
2023-01-29T01:23:48.313Z,92336.59
2023-01-29T01:26:51.508Z,92338.69
2023-01-29T01:29:54.703Z,92340.22
2023-01-29T01:32:58.385Z,92342.09
2023-01-29T01:36:05.086Z,92348.19
2023-01-29T01:39:08.478Z,92346.53
2023-01-29T01:42:15.039Z,92345.41
2023-01-29T01:45:34.177Z,92334.97
2023-01-29T01:48:37.832Z,92332.16
2023-01-29T01:51:46.090Z,92324.53
2023-01-29T01:54:50.489Z,92330.25
2023-01-29T01:57:59.032Z,92323.50
2023-01-29T02:01:04.634Z,92330.56
2023-01-29T02:04:34.070Z,92334.44
2023-01-29T02:08:04.645Z,92340.28
2023-01-29T02:11:08.618Z,92340.28
2023-01-29T02:14:12.511Z,92330.94
2023-01-29T02:17:18.416Z,92327.19
2023-01-29T02:20:30.013Z,92333.41
2023-01-29T02:24:01.163Z,92333.88
2023-01-29T02:27:47.407Z,92325.47
2023-01-29T02:30:50.638Z,92335.84
2023-01-29T02:34:17.798Z,92331.59
2023-01-29T02:37:27.897Z,92330.38
2023-01-29T02:40:46.654Z,92328.69
2023-01-29T02:44:16.883Z,92329.72
2023-01-29T02:47:31.715Z,92335.91
2023-01-29T02:50:47.356Z,92339.63
2023-01-29T02:54:09.461Z,92333.97
2023-01-29T02:57:21.855Z,92339.56
2023-01-29T03:00:31.678Z,92330.09
2023-01-29T03:03:45.936Z,92327.78
2023-01-29T03:07:04.407Z,92326.16
2023-01-29T03:10:19.545Z,92327.13
2023-01-29T03:13:33.517Z,92324.97
2023-01-29T03:17:00.668Z,92319.47
2023-01-29T03:20:08.691Z,92305.78
2023-01-29T03:23:19.448Z,92325.97
2023-01-29T03:26:43.357Z,92316.44
2023-01-29T03:30:07.941Z,92318.97
2023-01-29T03:33:27.127Z,92308.03
2023-01-29T03:36:52.768Z,92298.13
2023-01-29T03:39:56.610Z,92311.34
2023-01-29T03:43:14.493Z,92306.88
2023-01-29T03:46:31.996Z,92304.53
2023-01-29T03:49:49.618Z,92296.09
2023-01-29T03:53:21.036Z,92289.63
2023-01-29T03:56:41.332Z,92292.19
2023-01-29T04:00:21.923Z,92293.00
2023-01-29T04:04:06.981Z,92284.03
2023-01-29T04:07:25.074Z,92287.50
2023-01-29T04:10:43.499Z,92279.84
2023-01-29T04:13:48.293Z,92282.84
2023-01-29T04:16:58.626Z,92279.81
2023-01-29T04:20:15.720Z,92276.28
2023-01-29T04:23:28.803Z,92268.78
2023-01-29T04:26:38.329Z,92268.72
2023-01-29T04:30:03.351Z,92262.22
2023-01-29T04:33:25.370Z,92266.13
2023-01-29T04:36:57.503Z,92275.13
2023-01-29T04:40:26.359Z,92271.47
2023-01-29T04:43:35.176Z,92270.22
2023-01-29T04:46:48.785Z,92274.44
2023-01-29T04:50:03.662Z,92270.41
2023-01-29T04:53:17.998Z,92271.19
2023-01-29T04:56:40.582Z,92272.00
2023-01-29T04:59:52.357Z,92275.41
2023-01-29T05:02:57.301Z,92273.66
2023-01-29T05:06:03.079Z,92277.44
2023-01-29T05:09:10.669Z,92282.81
2023-01-29T05:12:19.230Z,92282.44
2023-01-29T05:15:33.537Z,92278.41
2023-01-29T05:18:38.663Z,92285.59
2023-01-29T05:21:45.647Z,92273.91
2023-01-29T05:24:49.383Z,92279.84
2023-01-29T05:28:28.740Z,92281.00
2023-01-29T05:31:32.911Z,92278.13
2023-01-29T05:34:36.849Z,92272.91
2023-01-29T05:37:41.111Z,92262.09
2023-01-29T05:40:45.066Z,92261.69
2023-01-29T05:43:48.977Z,92265.75
2023-01-29T05:46:52.436Z,92261.00
2023-01-29T05:49:56.077Z,92263.34
2023-01-29T05:53:03.032Z,92260.19
2023-01-29T05:56:08.080Z,92255.13
2023-01-29T05:59:12.113Z,92256.88
2023-01-29T06:02:15.332Z,92255.28
2023-01-29T06:05:19.225Z,92259.22
2023-01-29T06:08:22.429Z,92263.50
2023-01-29T06:11:25.977Z,92263.63
2023-01-29T06:14:32.992Z,92263.50
2023-01-29T06:17:36.836Z,92265.38
2023-01-29T06:20:42.036Z,92265.81
2023-01-29T06:23:45.476Z,92264.00
2023-01-29T06:26:51.674Z,92264.72
2023-01-29T06:29:55.165Z,92265.81
2023-01-29T06:32:59.873Z,92271.09
2023-01-29T06:36:04.081Z,92276.16
2023-01-29T06:39:07.481Z,92275.97
2023-01-29T06:42:12.267Z,92278.19
2023-01-29T06:45:20.184Z,92282.06
2023-01-29T06:48:26.144Z,92285.63
2023-01-29T06:51:32.025Z,92293.56
2023-01-29T06:54:38.040Z,92290.94
2023-01-29T06:57:43.041Z,92294.16
2023-01-29T07:00:46.862Z,92295.81
2023-01-29T07:03:53.398Z,92292.09
2023-01-29T07:07:00.897Z,92294.38
2023-01-29T07:10:06.456Z,92295.72
2023-01-29T07:13:10.010Z,92296.88
2023-01-29T07:16:13.638Z,92307.06
2023-01-29T07:19:17.995Z,92308.59
2023-01-29T07:22:21.190Z,92312.47
2023-01-29T07:25:25.112Z,92309.72
2023-01-29T07:28:28.277Z,92320.59
2023-01-29T07:31:31.683Z,92321.94
2023-01-29T07:34:34.918Z,92327.19
2023-01-29T07:37:38.196Z,92325.34
2023-01-29T07:40:41.247Z,92324.91
2023-01-29T07:43:44.319Z,92327.06
2023-01-29T07:46:47.584Z,92337.06
2023-01-29T07:49:51.976Z,92333.03
2023-01-29T07:52:58.126Z,92330.03
2023-01-29T07:56:01.269Z,92323.81
2023-01-29T07:59:04.575Z,92335.44
2023-01-29T08:02:07.759Z,92326.16
2023-01-29T08:05:10.912Z,92325.81
2023-01-29T08:08:14.371Z,92329.47
2023-01-29T08:11:17.544Z,92329.47
2023-01-29T08:14:20.756Z,92326.66
2023-01-29T08:17:23.881Z,92327.66
2023-01-29T08:20:27.188Z,92327.06
2023-01-29T08:23:31.177Z,92328.72
2023-01-29T08:26:34.385Z,92333.53
2023-01-29T08:29:37.589Z,92335.00
2023-01-29T08:32:41.073Z,92334.94
2023-01-29T08:35:44.276Z,92333.94
2023-01-29T08:38:47.560Z,92346.91
2023-01-29T08:41:50.805Z,92342.44
2023-01-29T08:44:54.051Z,92342.84
2023-01-29T08:47:57.144Z,92351.16
2023-01-29T08:51:12.786Z,92353.19
2023-01-29T08:54:17.147Z,92358.88
2023-01-29T08:57:20.442Z,92346.72
2023-01-29T09:00:24.374Z,92357.16
2023-01-29T09:03:29.053Z,92356.06
2023-01-29T09:06:35.819Z,92362.03
2023-01-29T09:09:39.679Z,92361.06
2023-01-29T09:12:43.924Z,92364.84
2023-01-29T09:15:48.516Z,92368.81
2023-01-29T09:18:52.294Z,92367.03
2023-01-29T09:21:57.341Z,92376.19
2023-01-29T09:25:01.641Z,92377.22
2023-01-29T09:28:07.554Z,92379.28
2023-01-29T09:31:12.946Z,92380.69
2023-01-29T09:34:16.822Z,92377.53
2023-01-29T09:37:23.876Z,92382.34
2023-01-29T09:40:31.838Z,92394.06
2023-01-29T09:43:50.328Z,92394.78
2023-01-29T09:46:56.478Z,92402.47
2023-01-29T09:50:02.495Z,92400.72
2023-01-29T09:53:30.712Z,92402.94
2023-01-29T09:56:37.123Z,92408.84
2023-01-29T09:59:42.222Z,92412.31
2023-01-29T10:02:55.777Z,92418.41
2023-01-29T10:06:19.668Z,92418.31
2023-01-29T10:09:53.323Z,92419.56
2023-01-29T10:13:15.473Z,92424.34
2023-01-29T10:16:36.724Z,92423.66
2023-01-29T10:19:55.197Z,92425.56
2023-01-29T10:23:19.446Z,92420.00
2023-01-29T10:26:28.660Z,92422.56
2023-01-29T10:29:42.557Z,92422.13
2023-01-29T10:32:51.143Z,92415.44
2023-01-29T10:36:07.219Z,92417.59
2023-01-29T10:39:19.213Z,92434.03
2023-01-29T10:42:41.793Z,92425.56
2023-01-29T10:46:03.492Z,92429.50
2023-01-29T10:49:31.920Z,92435.66
2023-01-29T10:53:04.465Z,92438.81
2023-01-29T10:56:23.339Z,92433.28
2023-01-29T11:00:03.235Z,92442.25
2023-01-29T11:03:27.911Z,92442.94
2023-01-29T11:06:40.971Z,92440.78
2023-01-29T11:10:09.243Z,92436.47
2023-01-29T11:13:16.479Z,92436.63
2023-01-29T11:16:19.793Z,92421.91
2023-01-29T11:19:44.565Z,92433.25
2023-01-29T11:22:54.952Z,92427.06
2023-01-29T11:25:59.900Z,92417.47
2023-01-29T11:29:02.979Z,92428.47
2023-01-29T11:32:14.950Z,92431.84
2023-01-29T11:35:18.428Z,92437.66
2023-01-29T11:38:31.101Z,92430.09
2023-01-29T11:41:44.647Z,92427.91
2023-01-29T11:44:48.743Z,92421.75
2023-01-29T11:48:01.531Z,92417.22
2023-01-29T11:51:06.595Z,92429.91
2023-01-29T11:54:17.998Z,92424.47
2023-01-29T11:57:37.150Z,92419.97
2023-01-29T12:00:43.208Z,92429.50
2023-01-29T12:03:55.155Z,92429.94
2023-01-29T12:06:59.853Z,92430.19
2023-01-29T12:10:04.193Z,92426.47
2023-01-29T12:13:11.768Z,92416.56
2023-01-29T12:16:54.755Z,92422.56
2023-01-29T12:20:05.546Z,92422.13
2023-01-29T12:23:24.442Z,92423.84
2023-01-29T12:26:39.232Z,92419.28
2023-01-29T12:30:19.719Z,92417.88
2023-01-29T12:33:48.950Z,92428.84
2023-01-29T12:37:12.171Z,92439.41
2023-01-29T12:40:17.590Z,92438.19
2023-01-29T12:43:31.864Z,92438.19
2023-01-29T12:46:43.365Z,92441.16
2023-01-29T12:49:55.367Z,92446.09
2023-01-29T12:53:08.175Z,92447.88
2023-01-29T12:56:17.100Z,92450.13
2023-01-29T12:59:45.891Z,92443.03
2023-01-29T13:03:22.602Z,92441.56
2023-01-29T13:06:42.283Z,92439.88
2023-01-29T13:09:54.678Z,92437.00
2023-01-29T13:13:23.374Z,92435.78
2023-01-29T13:16:32.917Z,92446.19
2023-01-29T13:19:46.284Z,92449.53
2023-01-29T13:22:52.762Z,92445.56
2023-01-29T13:25:56.366Z,92447.25
2023-01-29T13:29:04.101Z,92453.94
2023-01-29T13:32:11.365Z,92434.16
2023-01-29T13:35:17.493Z,92444.16
2023-01-29T13:38:35.251Z,92431.47
2023-01-29T13:41:45.412Z,92440.69
2023-01-29T13:45:02.201Z,92436.06
2023-01-29T13:48:29.864Z,92437.28
2023-01-29T13:51:37.406Z,92444.09
2023-01-29T13:54:41.029Z,92447.31
2023-01-29T13:57:51.611Z,92443.88
2023-01-29T14:00:57.449Z,92436.94
2023-01-29T14:04:15.875Z,92447.59
2023-01-29T14:07:48.017Z,92446.28
2023-01-29T14:11:13.567Z,92442.94
2023-01-29T14:15:01.907Z,92440.16
2023-01-29T14:18:11.232Z,92439.44
2023-01-29T14:21:17.382Z,92443.19
2023-01-29T14:24:29.393Z,92428.13
2023-01-29T14:27:33.652Z,92430.34
2023-01-29T14:30:41.707Z,92429.28
2023-01-29T14:33:46.071Z,92434.19
2023-01-29T14:36:56.613Z,92431.28
2023-01-29T14:40:13.983Z,92442.47
2023-01-29T14:43:21.627Z,92441.16
2023-01-29T14:46:36.586Z,92434.34
2023-01-29T14:49:57.786Z,92440.91
2023-01-29T14:53:10.129Z,92441.94
2023-01-29T14:56:18.839Z,92438.06
2023-01-29T14:59:44.731Z,92434.41
2023-01-29T15:02:59.831Z,92434.38
2023-01-29T15:06:07.298Z,92433.31
2023-01-29T15:09:35.780Z,92436.69
2023-01-29T15:13:04.148Z,92440.00
2023-01-29T15:16:15.817Z,92439.09
2023-01-29T15:19:41.107Z,92448.16
2023-01-29T15:22:45.298Z,92445.88
2023-01-29T15:25:51.978Z,92445.47
2023-01-29T15:29:03.502Z,92439.03
2023-01-29T15:32:08.732Z,92438.59
2023-01-29T15:35:27.297Z,92442.00
2023-01-29T15:38:31.053Z,92442.22
2023-01-29T15:41:34.258Z,92436.56
2023-01-29T15:44:38.245Z,92434.88
2023-01-29T15:47:41.425Z,92434.72
2023-01-29T15:50:46.195Z,92440.03
2023-01-29T15:53:56.644Z,92426.59
2023-01-29T15:57:00.674Z,92431.84
2023-01-29T16:00:05.806Z,92423.63
2023-01-29T16:03:17.467Z,92415.16
2023-01-29T16:06:22.437Z,92417.63
2023-01-29T16:09:27.591Z,92419.31
2023-01-29T16:12:31.671Z,92418.81
2023-01-29T16:15:40.894Z,92418.34
2023-01-29T16:18:58.811Z,92429.69
2023-01-29T16:22:05.672Z,92427.31
2023-01-29T16:25:14.201Z,92421.09
2023-01-29T16:28:19.584Z,92416.25
2023-01-29T16:31:29.722Z,92414.53
2023-01-29T16:34:39.373Z,92412.41
2023-01-29T16:37:43.591Z,92403.59
2023-01-29T16:41:26.737Z,92401.50
2023-01-29T16:44:36.317Z,92406.72
2023-01-29T16:47:42.192Z,92412.81
2023-01-29T16:50:54.710Z,92412.94
2023-01-29T16:54:08.427Z,92415.28
2023-01-29T16:57:25.449Z,92419.56
2023-01-29T17:00:30.735Z,92413.31
2023-01-29T17:03:36.321Z,92405.53
2023-01-29T17:06:42.415Z,92409.03
2023-01-29T17:09:45.589Z,92402.44
2023-01-29T17:13:10.988Z,92402.44
2023-01-29T17:16:27.481Z,92406.34
2023-01-29T17:19:30.930Z,92407.28
2023-01-29T17:22:33.994Z,92415.47
2023-01-29T17:25:37.462Z,92406.84
2023-01-29T17:28:41.430Z,92406.31
2023-01-29T17:31:45.020Z,92403.88
2023-01-29T17:34:48.228Z,92408.34
2023-01-29T17:37:51.485Z,92400.47
2023-01-29T17:41:07.042Z,92402.53
2023-01-29T17:44:10.114Z,92400.72
2023-01-29T17:47:17.465Z,92390.97
2023-01-29T17:50:28.027Z,92392.00
2023-01-29T17:53:44.888Z,92395.84
2023-01-29T17:56:49.609Z,92398.84
2023-01-29T17:59:52.828Z,92405.63
2023-01-29T18:02:56.606Z,92400.78
2023-01-29T18:06:00.002Z,92400.44
2023-01-29T18:09:04.312Z,92412.75
2023-01-29T18:12:09.964Z,92419.09
2023-01-29T18:15:13.436Z,92411.84
2023-01-29T18:18:23.363Z,92406.75
2023-01-29T18:21:26.397Z,92409.47
2023-01-29T18:24:29.570Z,92403.16
2023-01-29T18:27:32.678Z,92404.22
2023-01-29T18:30:35.994Z,92396.63
2023-01-29T18:33:39.114Z,92389.00
2023-01-29T18:36:47.283Z,92391.03
2023-01-29T18:39:50.489Z,92392.56
2023-01-29T18:42:53.735Z,92395.88
2023-01-29T18:46:00.601Z,92401.03
2023-01-29T18:49:03.861Z,92394.09
2023-01-29T18:52:08.090Z,92398.50
2023-01-29T18:55:11.260Z,92401.97
2023-01-29T18:58:29.402Z,92392.59
2023-01-29T19:01:37.730Z,92393.13
2023-01-29T19:04:40.843Z,92393.50
2023-01-29T19:07:43.970Z,92395.50
2023-01-29T19:10:47.255Z,92391.84
2023-01-29T19:13:50.505Z,92400.06
2023-01-29T19:16:53.840Z,92406.53
2023-01-29T19:20:02.578Z,92411.75
2023-01-29T19:23:06.157Z,92411.25
2023-01-29T19:26:11.245Z,92404.28
2023-01-29T19:29:15.250Z,92409.66
2023-01-29T19:32:18.302Z,92403.41
2023-01-29T19:35:21.352Z,92394.34
2023-01-29T19:38:24.941Z,92391.59
2023-01-29T19:41:28.175Z,92386.03
2023-01-29T19:44:31.325Z,92377.03
2023-01-29T19:47:42.956Z,92369.50
2023-01-29T19:50:55.515Z,92364.03
2023-01-29T19:53:58.674Z,92365.72
2023-01-29T19:57:01.847Z,92369.75
2023-01-29T20:00:06.374Z,92363.22
2023-01-29T20:03:09.477Z,92354.34
2023-01-29T20:06:12.823Z,92352.69
2023-01-29T20:09:15.992Z,92354.19
2023-01-29T20:12:19.302Z,92342.31
2023-01-29T20:15:23.116Z,92343.66
2023-01-29T20:18:26.198Z,92340.09
2023-01-29T20:21:29.353Z,92339.63
2023-01-29T20:24:35.174Z,92342.25
2023-01-29T20:27:38.283Z,92340.59
2023-01-29T20:30:42.415Z,92338.56
2023-01-29T20:33:45.286Z,92336.22
2023-01-29T20:36:48.424Z,92336.53
2023-01-29T20:39:51.515Z,92329.34
2023-01-29T20:42:54.928Z,92332.09
2023-01-29T20:45:59.003Z,92323.88
2023-01-29T20:49:02.876Z,92321.50
2023-01-29T20:52:07.332Z,92313.28
2023-01-29T20:55:12.419Z,92309.78
2023-01-29T20:58:15.810Z,92307.94
2023-01-29T21:01:20.992Z,92314.13
2023-01-29T21:04:24.321Z,92305.72
2023-01-29T21:07:27.488Z,92314.56
2023-01-29T21:10:30.572Z,92302.84
2023-01-29T21:13:33.820Z,92301.72
2023-01-29T21:16:37.014Z,92301.56
2023-01-29T21:19:40.163Z,92300.72
2023-01-29T21:22:44.552Z,92293.72
2023-01-29T21:25:48.704Z,92281.81
2023-01-29T21:28:52.049Z,92284.50
2023-01-29T21:31:55.131Z,92301.56
2023-01-29T21:34:58.362Z,92298.03
2023-01-29T21:38:01.444Z,92297.91
2023-01-29T21:41:07.803Z,92288.00
2023-01-29T21:44:11.396Z,92288.19
2023-01-29T21:47:14.593Z,92292.88
2023-01-29T21:50:18.294Z,92287.88
2023-01-29T21:53:21.594Z,92289.66
2023-01-29T21:56:24.832Z,92282.16
2023-01-29T21:59:27.909Z,92276.47
2023-01-29T22:02:34.050Z,92284.19
2023-01-29T22:05:37.152Z,92288.50
2023-01-29T22:08:40.279Z,92281.66
2023-01-29T22:11:43.421Z,92288.34
2023-01-29T22:14:47.956Z,92275.56
2023-01-29T22:17:51.501Z,92277.97
2023-01-29T22:20:55.863Z,92270.13
2023-01-29T22:23:59.002Z,92265.53
2023-01-29T22:27:02.296Z,92264.50
2023-01-29T22:30:06.464Z,92264.78
2023-01-29T22:33:11.088Z,92266.19
2023-01-29T22:36:14.304Z,92267.59
2023-01-29T22:39:17.430Z,92274.44
2023-01-29T22:42:21.444Z,92274.81
2023-01-29T22:45:24.264Z,92264.75
2023-01-29T22:48:29.243Z,92256.81
2023-01-29T22:51:32.412Z,92268.16
2023-01-29T22:54:35.548Z,92267.78
2023-01-29T22:57:39.421Z,92273.63
2023-01-29T23:00:42.263Z,92269.63
2023-01-29T23:03:47.140Z,92275.44
2023-01-29T23:06:51.027Z,92274.13
2023-01-29T23:09:54.967Z,92278.16
2023-01-29T23:12:58.648Z,92285.38
2023-01-29T23:16:02.724Z,92278.22
2023-01-29T23:19:06.236Z,92273.81
2023-01-29T23:22:09.776Z,92281.44
2023-01-29T23:25:13.262Z,92284.69
2023-01-29T23:28:17.730Z,92289.13
2023-01-29T23:31:21.366Z,92287.97
2023-01-29T23:34:24.660Z,92280.91
2023-01-29T23:37:28.379Z,92272.78
2023-01-29T23:40:32.264Z,92273.13
2023-01-29T23:43:36.221Z,92270.81
2023-01-29T23:46:43.144Z,92254.94
2023-01-29T23:49:47.010Z,92260.22
2023-01-29T23:52:50.638Z,92272.09
2023-01-29T23:56:02.173Z,92265.84
2023-01-29T23:59:06.995Z,92268.03
